Turandot — 9V9825 — position and weather

sailwx.info

Track history (hours):
 
Tides and Currents Weather Stations Pressure Air Temp Water Temp Dewpoint Dewpoint Depression Visibility Wind Speed Wind Dir Waves Ship Positions

Turandot

Last reported at 2018-Apr-11 19:36 UTC. Time now 2018-Apr-19 17:39 UTC.
Position N 01°15' E 104°07'.

Length 199 m; draft 9.3 m.

Type: Cargo ship. MMSI: 566441000.

Date/timePositionNaut miles runAvg speedWind from/ knotsBaromVisibWave heightAir tempDewpointWater temp
2018-Apr-11 19:36N 01°15' E 104°07'217.1
2018-Apr-11 19:29N 01°14' E 104°05'816.7
2018-Apr-11 18:59N 01°14' E 103°57'715.3
2018-Apr-11 18:30N 01°11' E 103°50'4 7.3
2018-Apr-11 18:00N 01°13' E 103°47'4 8.3
2018-Apr-11 17:30N 01°17' E 103°45'1 1.6
2018-Apr-11 17:00N 01°17' E 103°45'0 0.0
2018-Apr-11 16:30N 01°17' E 103°45'0 0.0
2018-Apr-11 16:00N 01°17' E 103°45'0 0.0
2018-Apr-11 15:30N 01°17' E 103°45'0 0.0
2018-Apr-11 15:00N 01°17' E 103°45'0 0.0
2018-Apr-11 14:30N 01°17' E 103°45'0 0.0
2018-Apr-11 14:00N 01°17' E 103°45'0 0.0
2018-Apr-11 13:29N 01°17' E 103°45'0 0.0
2018-Apr-11 12:59N 01°17' E 103°45'0 0.0
2018-Apr-11 12:29N 01°17' E 103°45'0 0.0
2018-Apr-11 11:59N 01°17' E 103°45'0 0.0
2018-Apr-11 11:29N 01°17' E 103°45'0 0.0
2018-Apr-11 10:56N 01°17' E 103°45'0 0.0
2018-Apr-11 10:29N 01°17' E 103°45'0 0.0
2018-Apr-11 09:59N 01°17' E 103°45'0 0.0
2018-Apr-11 09:29N 01°17' E 103°45'0 0.0
2018-Apr-11 08:59N 01°17' E 103°45'0 0.2
2018-Apr-11 08:31N 01°17' E 103°45'1 2.2
2018-Apr-11 08:00N 01°16' E 103°45'5 9.3
2018-Apr-11 07:30N 01°13' E 103°49'4 7.4
2018-Apr-11 07:00N 01°14' E 103°52'2 0.2
2018-Apr-10 19:45N 01°16' E 103°51'0 0.0
2018-Apr-10 19:30N 01°16' E 103°51'0 0.0
2018-Apr-10 19:00N 01°16' E 103°51'0 0.0
2018-Apr-10 15:35N 01°16' E 103°51'0 0.0
2018-Apr-10 15:30N 01°16' E 103°51'0 0.7
2018-Apr-10 14:59N 01°16' E 103°51'2 4.2
2018-Apr-10 14:30N 01°14' E 103°52'2 3.7
2018-Apr-10 13:57N 01°13' E 103°54'4 9.6
2018-Apr-10 13:30N 01°11' E 103°50'712.8
2018-Apr-10 13:00N 01°07' E 103°45'713.6
2018-Apr-10 12:30N 01°03' E 103°40'713.7
2018-Apr-10 11:58N 01°06' E 103°33'816.9
2018-Apr-10 11:28N 01°10' E 103°26'917.6
2018-Apr-10 10:58N 01°15' E 103°19'7 0.2
2018-Apr-08 18:36N 01°22' E 103°16'517.7
2018-Apr-08 18:18N 01°19' E 103°20'518.2
2018-Apr-08 18:00N 01°15' E 103°24'917.8
2018-Apr-08 17:30N 01°12' E 103°32'713.1
2018-Apr-08 17:01N 01°12' E 103°39'510.8
2018-Apr-08 16:31N 01°15' E 103°43'3 5.5
2018-Apr-08 16:00N 01°18' E 103°43'0 0.3
2018-Apr-08 15:29N 01°18' E 103°44'0 0.0
2018-Apr-08 14:58N 01°18' E 103°44'0 0.0
2018-Apr-08 14:28N 01°18' E 103°44'0 0.0
2018-Apr-08 13:58N 01°18' E 103°44'0 0.0
2018-Apr-08 13:28N 01°18' E 103°44'0 0.0
2018-Apr-08 12:58N 01°18' E 103°44'0 0.0
2018-Apr-08 12:28N 01°18' E 103°44'0 0.0
2018-Apr-08 11:58N 01°18' E 103°44'0 0.0
2018-Apr-08 11:28N 01°18' E 103°44'0 0.0
2018-Apr-08 10:55N 01°18' E 103°44'0 0.0
2018-Apr-08 10:28N 01°18' E 103°44'0 0.0
2018-Apr-08 09:58N 01°18' E 103°44'0 0.0
2018-Apr-08 09:28N 01°18' E 103°44'0 0.0
2018-Apr-08 08:58N 01°18' E 103°44'0 0.0
2018-Apr-08 08:28N 01°18' E 103°44'0 0.0
2018-Apr-08 07:58N 01°18' E 103°44'0 0.0
2018-Apr-08 07:30N 01°18' E 103°44'1 1.2
2018-Apr-08 07:00N 01°18' E 103°44'3 5.5
2018-Apr-08 06:31N 01°16' E 103°46'4 7.9
2018-Apr-08 06:00N 01°13' E 103°48'510.8
2018-Apr-08 05:30N 01°14' E 103°54'5 9.8
2018-Apr-08 04:59N 01°15' E 103°58'510.7
2018-Apr-08 04:30N 01°16' E 104°04'  
Track history (hours):
 
Tides and Currents Weather Stations Pressure Air Temp Water Temp Dewpoint Dewpoint Depression Visibility Wind Speed Wind Dir Waves Ship Positions

Turandot

Last reported at 2018-Apr-11 19:36 UTC. Time now 2018-Apr-19 17:39 UTC.
Position N 01°15' E 104°07'.

Length 199 m; draft 9.3 m.

Type: Cargo ship. MMSI: 566441000.

Date/timePositionNaut miles runAvg speedWind from/ knotsBaromVisibWave heightAir tempDewpointWater temp
2018-Apr-11 19:36N 01°15' E 104°07'217.1
2018-Apr-11 19:29N 01°14' E 104°05'816.7
2018-Apr-11 18:59N 01°14' E 103°57'715.3
2018-Apr-11 18:30N 01°11' E 103°50'4 7.3
2018-Apr-11 18:00N 01°13' E 103°47'4 8.3
2018-Apr-11 17:30N 01°17' E 103°45'1 1.6
2018-Apr-11 17:00N 01°17' E 103°45'0 0.0
2018-Apr-11 16:30N 01°17' E 103°45'0 0.0
2018-Apr-11 16:00N 01°17' E 103°45'0 0.0
2018-Apr-11 15:30N 01°17' E 103°45'0 0.0
2018-Apr-11 15:00N 01°17' E 103°45'0 0.0
2018-Apr-11 14:30N 01°17' E 103°45'0 0.0
2018-Apr-11 14:00N 01°17' E 103°45'0 0.0
2018-Apr-11 13:29N 01°17' E 103°45'0 0.0
2018-Apr-11 12:59N 01°17' E 103°45'0 0.0
2018-Apr-11 12:29N 01°17' E 103°45'0 0.0
2018-Apr-11 11:59N 01°17' E 103°45'0 0.0
2018-Apr-11 11:29N 01°17' E 103°45'0 0.0
2018-Apr-11 10:56N 01°17' E 103°45'0 0.0
2018-Apr-11 10:29N 01°17' E 103°45'0 0.0
2018-Apr-11 09:59N 01°17' E 103°45'0 0.0
2018-Apr-11 09:29N 01°17' E 103°45'0 0.0
2018-Apr-11 08:59N 01°17' E 103°45'0 0.2
2018-Apr-11 08:31N 01°17' E 103°45'1 2.2
2018-Apr-11 08:00N 01°16' E 103°45'5 9.3
2018-Apr-11 07:30N 01°13' E 103°49'4 7.4
2018-Apr-11 07:00N 01°14' E 103°52'2 0.2
2018-Apr-10 19:45N 01°16' E 103°51'0 0.0
2018-Apr-10 19:30N 01°16' E 103°51'0 0.0
2018-Apr-10 19:00N 01°16' E 103°51'0 0.0
2018-Apr-10 15:35N 01°16' E 103°51'0 0.0
2018-Apr-10 15:30N 01°16' E 103°51'0 0.7
2018-Apr-10 14:59N 01°16' E 103°51'2 4.2
2018-Apr-10 14:30N 01°14' E 103°52'2 3.7
2018-Apr-10 13:57N 01°13' E 103°54'4 9.6
2018-Apr-10 13:30N 01°11' E 103°50'712.8
2018-Apr-10 13:00N 01°07' E 103°45'713.6
2018-Apr-10 12:30N 01°03' E 103°40'713.7
2018-Apr-10 11:58N 01°06' E 103°33'816.9
2018-Apr-10 11:28N 01°10' E 103°26'917.6
2018-Apr-10 10:58N 01°15' E 103°19'7 0.2
2018-Apr-08 18:36N 01°22' E 103°16'517.7
2018-Apr-08 18:18N 01°19' E 103°20'518.2
2018-Apr-08 18:00N 01°15' E 103°24'917.8
2018-Apr-08 17:30N 01°12' E 103°32'713.1
2018-Apr-08 17:01N 01°12' E 103°39'510.8
2018-Apr-08 16:31N 01°15' E 103°43'3 5.5
2018-Apr-08 16:00N 01°18' E 103°43'0 0.3
2018-Apr-08 15:29N 01°18' E 103°44'0 0.0
2018-Apr-08 14:58N 01°18' E 103°44'0 0.0
2018-Apr-08 14:28N 01°18' E 103°44'0 0.0
2018-Apr-08 13:58N 01°18' E 103°44'0 0.0
2018-Apr-08 13:28N 01°18' E 103°44'0 0.0
2018-Apr-08 12:58N 01°18' E 103°44'0 0.0
2018-Apr-08 12:28N 01°18' E 103°44'0 0.0
2018-Apr-08 11:58N 01°18' E 103°44'0 0.0
2018-Apr-08 11:28N 01°18' E 103°44'0 0.0
2018-Apr-08 10:55N 01°18' E 103°44'0 0.0
2018-Apr-08 10:28N 01°18' E 103°44'0 0.0
2018-Apr-08 09:58N 01°18' E 103°44'0 0.0
2018-Apr-08 09:28N 01°18' E 103°44'0 0.0
2018-Apr-08 08:58N 01°18' E 103°44'0 0.0
2018-Apr-08 08:28N 01°18' E 103°44'0 0.0
2018-Apr-08 07:58N 01°18' E 103°44'0 0.0
2018-Apr-08 07:30N 01°18' E 103°44'1 1.2
2018-Apr-08 07:00N 01°18' E 103°44'3 5.5
2018-Apr-08 06:31N 01°16' E 103°46'4 7.9
2018-Apr-08 06:00N 01°13' E 103°48'510.8
2018-Apr-08 05:30N 01°14' E 103°54'5 9.8
2018-Apr-08 04:59N 01°15' E 103°58'510.7
2018-Apr-08 04:30N 01°16' E 104°04'  

Dump ship's entire track history